Time;durP1;ratioP1;P1;durP2;ratioP2;P2;SDS_P1;SDS_P2;PMS_P1;PMS_P2;Temp;Humidity;BMP_temperature;BMP_pressure;BME280_temperature;BME280_humidity;BME280_pressure;Samples;Min_cycle;Max_cycle;Signal;HPM_P1;HPM_P2
2022/12/20 01:51:26;;;;;;;;;0.00;0.00;;;;;-149.69;100.00;58464.25;4915999;29;27874;-95
2022/12/20 01:54:12;;;;;;;;;0.00;0.00;;;;;-149.69;100.00;58464.25;4919015;29;27918;-96
2022/12/20 01:56:43;;;;;;;;;0.00;0.00;;;;;-149.69;100.00;58464.25;4927319;29;28270;-96
2022/12/20 02:09:38;;;;;;;;;0.00;0.00;;;;;-149.69;100.00;58464.25;4926719;29;27928;-96
2022/12/20 02:12:24;;;;;;;;;0.00;0.00;;;;;-149.69;100.00;58464.25;4929808;29;27928;-96
2022/12/20 02:15:04;;;;;;;;;0.00;0.00;;;;;-149.69;100.00;58464.25;4905481;29;28132;-96
2022/12/20 02:18:01;;;;;;;;;0.00;0.00;;;;;-149.69;100.00;58464.25;4916092;29;30077;-96
2022/12/20 02:20:54;;;;;;;;;14.00;14.00;;;;;-149.69;100.00;58464.25;4916011;29;28391;-96
2022/12/20 02:23:20;;;;;;;;;0.00;0.00;;;;;-149.69;100.00;58464.25;4928470;29;27959;-96
2022/12/20 02:25:53;;;;;;;;;0.00;0.00;;;;;-149.69;100.00;58464.25;4929372;28;27879;-96
2022/12/20 02:28:40;;;;;;;;;0.00;0.00;;;;;-149.69;100.00;58464.25;4920667;29;29804;-96
2022/12/20 02:31:12;;;;;;;;;0.00;0.00;;;;;-149.69;100.00;58464.25;4913119;29;28731;-96
2022/12/20 02:33:42;;;;;;;;;0.00;0.00;;;;;-149.69;100.00;58464.25;4900171;29;27948;-96
2022/12/20 02:36:07;;;;;;;;;0.00;0.00;;;;;-149.69;100.00;58464.25;4905205;29;28824;-95
2022/12/20 02:38:36;;;;;;;;;0.00;0.00;;;;;-149.69;100.00;58464.25;4920832;28;30198;-96
2022/12/20 02:41:15;;;;;;;;;0.00;0.00;;;;;-149.69;100.00;58464.25;4900765;29;28817;-95
2022/12/20 02:46:28;;;;;;;;;0.00;0.00;;;;;-149.69;100.00;58464.25;4935124;28;27910;-95
2022/12/20 02:48:59;;;;;;;;;0.00;0.00;;;;;-149.69;100.00;58464.25;4917490;29;29977;-96
2022/12/20 02:51:29;;;;;;;;;0.00;0.00;;;;;-149.69;100.00;58464.25;4934881;28;28717;-95
2022/12/20 02:53:56;;;;;;;;;0.00;0.00;;;;;-149.69;100.00;58464.25;4907090;29;27897;-95
2022/12/20 02:56:56;;;;;;;;;0.00;0.00;;;;;-149.69;100.00;58464.25;4911317;29;27849;-95
2022/12/20 02:59:30;;;;;;;;;0.00;0.00;;;;;-149.69;100.00;58464.25;4894702;29;30112;-96
2022/12/20 03:01:56;;;;;;;;;0.00;0.00;;;;;-149.69;100.00;58464.25;4872484;29;28929;-95
2022/12/20 03:04:29;;;;;;;;;0.00;0.00;;;;;-149.69;100.00;58464.25;4873766;29;28397;-95
2022/12/20 03:07:02;;;;;;;;;0.00;0.00;;;;;-149.69;100.00;58464.25;4873195;29;27881;-96
2022/12/20 03:09:33;;;;;;;;;0.00;0.00;;;;;-149.69;100.00;58464.25;4875086;29;30836;-95
2022/12/20 03:11:59;;;;;;;;;0.00;0.00;;;;;-149.69;100.00;58464.25;4882503;29;28755;-95
2022/12/20 03:14:25;;;;;;;;;0.00;0.00;;;;;-149.69;100.00;58464.25;4891477;29;28032;-95
2022/12/20 03:16:51;;;;;;;;;0.00;0.00;;;;;-149.69;100.00;58464.25;4892290;29;28438;-96
2022/12/20 03:19:17;;;;;;;;;0.00;0.00;;;;;-149.69;100.00;58464.25;4894891;29;30227;-95
2022/12/20 03:21:42;;;;;;;;;0.00;0.00;;;;;-149.69;100.00;58464.25;4869915;29;28739;-95
2022/12/20 03:24:10;;;;;;;;;0.00;0.00;;;;;-149.69;100.00;58464.25;4877870;29;28240;-95
2022/12/20 03:26:35;;;;;;;;;0.00;0.00;;;;;-149.69;100.00;58464.25;4891510;29;28434;-96
2022/12/20 03:29:01;;;;;;;;;0.00;0.00;;;;;-149.69;100.00;58464.25;4891611;29;29889;-95
2022/12/20 03:31:26;;;;;;;;;0.00;0.00;;;;;-149.69;100.00;58464.25;4892835;29;28532;-96
2022/12/20 03:33:52;;;;;;;;;0.00;0.00;;;;;-149.69;100.00;58464.25;4893847;29;28445;-96
2022/12/20 03:36:22;;;;;;;;;0.00;0.00;;;;;-149.69;100.00;58464.25;4909375;29;28651;-96
2022/12/20 03:38:47;;;;;;;;;0.00;0.00;;;;;-149.69;100.00;58464.25;4912658;28;29849;-96
2022/12/20 03:41:13;;;;;;;;;0.00;0.00;;;;;-149.69;100.00;58464.25;4924497;28;28567;-96
2022/12/20 03:43:38;;;;;;;;;0.00;0.00;;;;;-149.69;100.00;58464.25;4901699;29;28339;-95
2022/12/20 03:46:04;;;;;;;;;0.00;0.00;;;;;-149.69;100.00;58464.25;4922739;28;28342;-96
2022/12/20 03:48:29;;;;;;;;;0.00;0.00;;;;;-149.69;100.00;58464.25;4930396;28;30173;-96
2022/12/20 03:50:54;;;;;;;;;0.00;0.00;;;;;-149.69;100.00;58464.25;4908071;29;28683;-96
2022/12/20 03:53:20;;;;;;;;;0.00;0.00;;;;;-149.69;100.00;58464.25;4915209;29;28430;-96
2022/12/20 03:55:45;;;;;;;;;0.00;0.00;;;;;-149.69;100.00;58464.25;4900348;29;28595;-96
2022/12/20 03:58:10;;;;;;;;;0.00;0.00;;;;;-149.69;100.00;58464.25;4907492;29;29717;-95
2022/12/20 04:00:36;;;;;;;;;0.00;0.00;;;;;-149.69;100.00;58464.25;4901488;29;28754;-95
2022/12/20 04:03:01;;;;;;;;;0.00;0.00;;;;;-149.69;100.00;58464.25;4907934;29;27791;-95
2022/12/20 04:05:26;;;;;;;;;0.00;0.00;;;;;-149.69;100.00;58464.25;4906627;29;28512;-94
2022/12/20 04:07:52;;;;;;;;;0.00;0.00;;;;;-149.69;100.00;58464.25;4912156;28;30895;-95
2022/12/20 04:10:17;;;;;;;;;0.00;0.00;;;;;-149.69;100.00;58464.25;4925873;28;28669;-96
2022/12/20 04:12:42;;;;;;;;;0.00;0.00;;;;;-149.69;100.00;58464.25;4900173;29;28302;-96
2022/12/20 04:15:08;;;;;;;;;0.00;0.00;;;;;-149.69;100.00;58464.25;4908120;29;27955;-96
2022/12/20 04:17:33;;;;;;;;;0.00;0.00;;;;;-149.69;100.00;58464.25;4908175;29;29675;-95
2022/12/20 04:20:17;;;;;;;;;0.00;0.00;;;;;-149.69;100.00;58464.25;4898737;29;28720;-96
2022/12/20 04:22:49;;;;;;;;;0.00;0.00;;;;;-149.69;100.00;58464.25;4911669;29;27951;-95
2022/12/20 04:25:17;;;;;;;;;0.00;0.00;;;;;-149.69;100.00;58464.25;4910160;29;27872;-95
2022/12/20 04:27:42;;;;;;;;;0.00;0.00;;;;;-149.69;100.00;58464.25;4912457;28;29792;-95
2022/12/20 04:30:09;;;;;;;;;0.00;0.00;;;;;-149.69;100.00;58464.25;4899784;29;28884;-96
2022/12/20 04:32:34;;;;;;;;;0.00;0.00;;;;;-149.69;100.00;58464.25;4904343;29;27852;-95
2022/12/20 04:35:00;;;;;;;;;0.00;0.00;;;;;-149.69;100.00;58464.25;4910167;29;28458;-96
2022/12/20 04:37:26;;;;;;;;;0.00;0.00;;;;;-149.69;100.00;58464.25;4921693;28;29669;-95
2022/12/20 04:39:52;;;;;;;;;0.00;0.00;;;;;-149.69;100.00;58464.25;4916798;28;28735;-95
2022/12/20 04:42:17;;;;;;;;;0.00;0.00;;;;;-149.69;100.00;58464.25;4908083;29;28051;-95
2022/12/20 04:44:42;;;;;;;;;0.00;0.00;;;;;-149.69;100.00;58464.25;4906837;29;28281;-95
2022/12/20 04:47:09;;;;;;;;;0.00;0.00;;;;;-149.69;100.00;58464.25;4907726;29;29705;-95
2022/12/20 04:49:34;;;;;;;;;0.00;0.00;;;;;-149.69;100.00;58464.25;4899272;29;28668;-96
2022/12/20 04:53:46;;;;;;;;;0.00;0.00;;;;;-149.69;100.00;58464.25;4903031;29;28431;-96
2022/12/20 04:54:45;;;;;;;;;0.00;0.00;;;;;-149.69;100.00;58464.25;4900402;29;27842;-95
2022/12/20 04:57:11;;;;;;;;;0.00;0.00;;;;;-149.69;100.00;58464.25;4904187;29;29665;-96
2022/12/20 04:59:36;;;;;;;;;0.00;0.00;;;;;-149.69;100.00;58464.25;4916648;29;29456;-95
2022/12/20 05:02:01;;;;;;;;;0.00;0.00;;;;;-149.69;100.00;58464.25;4912516;29;28388;-95
2022/12/20 05:04:27;;;;;;;;;0.00;0.00;;;;;-149.69;100.00;58464.25;4916204;29;28536;-96
2022/12/20 05:06:52;;;;;;;;;0.00;0.00;;;;;-149.69;100.00;58464.25;4907983;29;29709;-96
2022/12/20 05:09:17;;;;;;;;;0.00;0.00;;;;;-149.69;100.00;58464.25;4910797;29;28665;-96
2022/12/20 05:11:43;;;;;;;;;0.00;0.00;;;;;-149.69;100.00;58464.25;4904603;29;28099;-96
2022/12/20 05:14:08;;;;;;;;;0.00;0.00;;;;;-149.69;100.00;58464.25;4913285;29;28520;-95
2022/12/20 05:16:33;;;;;;;;;0.00;0.00;;;;;-149.69;100.00;58464.25;4899787;29;29665;-95
2022/12/20 05:18:59;;;;;;;;;0.00;0.00;;;;;-149.69;100.00;58464.25;4910281;29;28646;-95
2022/12/20 05:26:52;;;;;;;;;0.00;0.00;;;;;-149.69;100.00;58464.25;4912512;29;29293;-95
2022/12/20 05:29:18;;;;;;;;;0.00;0.00;;;;;-149.69;100.00;58464.25;4899111;29;28534;-96
2022/12/20 05:31:43;;;;;;;;;0.00;0.00;;;;;-149.69;100.00;58464.25;4911448;29;28396;-96
2022/12/20 05:34:08;;;;;;;;;0.00;0.00;;;;;-149.69;100.00;58464.25;4904933;29;28508;-95
2022/12/20 05:36:34;;;;;;;;;0.00;0.00;;;;;-149.69;100.00;58464.25;4915311;28;30686;-96
2022/12/20 05:38:59;;;;;;;;;0.00;0.00;;;;;-149.69;100.00;58464.25;4905028;29;28751;-96
2022/12/20 05:41:25;;;;;;;;;0.00;0.00;;;;;-149.69;100.00;58464.25;4899314;29;27928;-95
2022/12/20 05:43:50;;;;;;;;;0.00;0.00;;;;;-149.69;100.00;58464.25;4907418;29;28469;-96
2022/12/20 05:46:15;;;;;;;;;0.00;0.00;;;;;-149.69;100.00;58464.25;4919642;28;29784;-95
2022/12/20 05:48:41;;;;;;;;;0.00;0.00;;;;;-149.69;100.00;58464.25;4916506;29;28680;-96
2022/12/20 05:51:06;;;;;;;;;0.00;0.00;;;;;-149.69;100.00;58464.25;4912704;29;28142;-94
2022/12/20 05:53:32;;;;;;;;;0.00;0.00;;;;;-149.69;100.00;58464.25;4909186;29;28606;-95
2022/12/20 05:55:58;;;;;;;;;0.00;0.00;;;;;-149.69;100.00;58464.25;4907173;29;28217;-95
2022/12/20 05:58:23;;;;;;;;;0.00;0.00;;;;;-149.69;100.00;58464.25;4914100;29;28762;-96
2022/12/20 06:00:48;;;;;;;;;0.00;0.00;;;;;-149.69;100.00;58464.25;4921252;29;27926;-96
2022/12/20 06:03:14;;;;;;;;;0.00;0.00;;;;;-149.69;100.00;58464.25;4909216;29;28411;-96
2022/12/20 06:05:40;;;;;;;;;0.00;0.00;;;;;-149.69;100.00;58464.25;4912062;29;29922;-96
2022/12/20 06:08:06;;;;;;;;;0.00;0.00;;;;;-149.69;100.00;58464.25;4921544;28;28553;-96
2022/12/20 06:10:36;;;;;;;;;0.00;0.00;;;;;-149.69;100.00;58464.25;4917639;29;28330;-95
2022/12/20 06:13:02;;;;;;;;;0.00;0.00;;;;;-149.69;100.00;58464.25;4912702;29;28483;-95
2022/12/20 06:15:28;;;;;;;;;0.00;0.00;;;;;-149.69;100.00;58464.25;4909778;29;29895;-95
2022/12/20 06:17:53;;;;;;;;;0.00;0.00;;;;;-149.69;100.00;58464.25;4908585;29;28415;-95
2022/12/20 06:20:19;;;;;;;;;0.00;0.00;;;;;-149.69;100.00;58464.25;4902931;29;28562;-96
2022/12/20 06:22:44;;;;;;;;;0.00;0.00;;;;;-149.69;100.00;58464.25;4903271;29;28587;-96
2022/12/20 06:25:11;;;;;;;;;0.00;0.00;;;;;-149.69;100.00;58464.25;4901435;29;29738;-95
2022/12/20 06:27:37;;;;;;;;;0.00;0.00;;;;;-149.69;100.00;58464.25;4906572;29;28860;-94
2022/12/20 06:30:04;;;;;;;;;0.00;0.00;;;;;-149.69;100.00;58464.25;4915738;29;28003;-95
2022/12/20 06:32:34;;;;;;;;;0.00;0.00;;;;;-149.69;100.00;58464.25;4916450;29;28501;-96
2022/12/20 06:34:59;;;;;;;;;0.00;0.00;;;;;-149.69;100.00;58464.25;4919837;29;28515;-95
2022/12/20 06:37:25;;;;;;;;;0.00;0.00;;;;;-149.69;100.00;58464.25;4901301;28;28517;-95
2022/12/20 06:39:50;;;;;;;;;0.00;0.00;;;;;-149.69;100.00;58464.25;4914519;29;28371;-96
2022/12/20 06:42:15;;;;;;;;;0.00;0.00;;;;;-149.69;100.00;58464.25;4909698;29;28623;-96
2022/12/20 06:44:41;;;;;;;;;0.00;0.00;;;;;-149.69;100.00;58464.25;4915117;29;29670;-95
2022/12/20 06:47:06;;;;;;;;;0.00;0.00;;;;;-149.69;100.00;58464.25;4920572;28;28581;-96
2022/12/20 06:49:32;;;;;;;;;0.00;0.00;;;;;-149.69;100.00;58464.25;4910886;29;27863;-95
2022/12/20 06:51:57;;;;;;;;;0.00;0.00;;;;;-149.69;100.00;58464.25;4916920;29;28069;-96
2022/12/20 06:54:22;;;;;;;;;0.00;0.00;;;;;-149.69;100.00;58464.25;4903660;29;29666;-96
2022/12/20 06:56:48;;;;;;;;;0.00;0.00;;;;;-149.69;100.00;58464.25;4916790;29;28663;-95
2022/12/20 06:59:14;;;;;;;;;0.00;0.00;;;;;-149.69;100.00;58464.25;4916425;29;27822;-95
2022/12/20 07:01:39;;;;;;;;;0.00;0.00;;;;;-149.69;100.00;58464.25;4904845;29;27870;-95
2022/12/20 07:04:04;;;;;;;;;0.00;0.00;;;;;-149.69;100.00;58464.25;4913471;29;30065;-94
2022/12/20 07:06:30;;;;;;;;;0.00;0.00;;;;;-149.69;100.00;58464.25;4907417;29;28850;-95
2022/12/20 07:08:55;;;;;;;;;0.00;0.00;;;;;-149.69;100.00;58464.25;4906418;29;27867;-95
2022/12/20 07:11:21;;;;;;;;;0.00;0.00;;;;;-149.69;100.00;58464.25;4912816;29;27854;-96
2022/12/20 07:13:46;;;;;;;;;0.00;0.00;;;;;-149.69;100.00;58464.25;4912753;29;30066;-95
2022/12/20 07:16:12;;;;;;;;;0.00;0.00;;;;;-149.69;100.00;58464.25;4903674;29;28416;-96
2022/12/20 07:18:37;;;;;;;;;0.00;0.00;;;;;-149.69;100.00;58464.25;4916421;29;28608;-96
2022/12/20 07:21:05;;;;;;;;;0.00;0.00;;;;;-149.69;100.00;58464.25;4918515;29;27855;-95
2022/12/20 07:23:31;;;;;;;;;0.00;0.00;;;;;-149.69;100.00;58464.25;4916998;29;30180;-94
2022/12/20 07:25:58;;;;;;;;;0.00;0.00;;;;;-149.69;100.00;58464.25;4896297;29;28754;-88
2022/12/20 07:28:24;;;;;;;;;0.00;0.00;;;;;-149.69;100.00;58464.25;4897430;29;28665;-86
2022/12/20 07:30:49;;;;;;;;;0.00;0.00;;;;;-149.69;100.00;58464.25;4908243;29;27823;-87
2022/12/20 07:33:15;;;;;;;;;0.00;0.00;;;;;-149.69;100.00;58464.25;4911022;29;30753;-86
2022/12/20 07:35:44;;;;;;;;;0.00;0.00;;;;;-149.69;100.00;58464.25;4900708;29;28531;-88
2022/12/20 07:38:10;;;;;;;;;0.00;0.00;;;;;-149.69;100.00;58464.25;4911798;28;28619;-87
2022/12/20 07:40:35;;;;;;;;;0.00;0.00;;;;;-149.69;100.00;58464.25;4902485;29;28575;-87
2022/12/20 07:43:00;;;;;;;;;0.00;0.00;;;;;-149.69;100.00;58464.25;4902212;29;29427;-87
2022/12/20 07:45:26;;;;;;;;;0.00;0.00;;;;;-149.69;100.00;58464.25;4909273;28;28489;-86
2022/12/20 07:47:52;;;;;;;;;0.00;0.00;;;;;-149.69;100.00;58464.25;4903962;29;28768;-85
2022/12/20 07:50:17;;;;;;;;;0.00;0.00;;;;;-149.69;100.00;58464.25;4909956;28;28377;-85
2022/12/20 07:52:45;;;;;;;;;0.00;0.00;;;;;-149.69;100.00;58464.25;4916714;28;28496;-86
2022/12/20 07:55:12;;;;;;;;;0.00;0.00;;;;;-149.69;100.00;58464.25;4913323;28;28554;-85
2022/12/20 07:57:50;;;;;;;;;0.00;0.00;;;;;-149.69;100.00;58464.25;4907313;28;29606;-86
2022/12/20 08:00:17;;;;;;;;;0.00;0.00;;;;;-149.69;100.00;58464.25;4908157;28;28517;-86
2022/12/20 08:02:53;;;;;;;;;0.00;0.00;;;;;-149.69;100.00;58464.25;4898191;28;28486;-86
2022/12/20 08:05:18;;;;;;;;;0.00;0.00;;;;;-149.69;100.00;58464.25;4911924;28;30003;-86
2022/12/20 08:07:45;;;;;;;;;0.00;0.00;;;;;-149.69;100.00;58464.25;4913115;28;28558;-86
2022/12/20 08:10:14;;;;;;;;;0.00;0.00;;;;;-149.69;100.00;58464.25;4915873;28;28573;-85
2022/12/20 08:12:42;;;;;;;;;0.00;0.00;;;;;-149.69;100.00;58464.25;4914663;28;29494;-85
2022/12/20 08:15:08;;;;;;;;;0.00;0.00;;;;;-149.69;100.00;58464.25;4911629;28;28620;-86
2022/12/20 08:17:33;;;;;;;;;0.00;0.00;;;;;-149.69;100.00;58464.25;4920987;28;28427;-85
2022/12/20 08:19:59;;;;;;;;;0.00;0.00;;;;;-149.69;100.00;58464.25;4904205;28;28491;-85
2022/12/20 08:22:25;;;;;;;;;0.00;0.00;;;;;-149.69;100.00;58464.25;4906601;28;29765;-85
2022/12/20 08:24:50;;;;;;;;;0.00;0.00;;;;;-149.69;100.00;58464.25;4905290;28;29291;-85
2022/12/20 08:27:16;;;;;;;;;0.00;0.00;;;;;-149.69;100.00;58464.25;4907558;29;28600;-86
2022/12/20 08:29:41;;;;;;;;;0.00;0.00;;;;;-149.69;100.00;58464.25;4906937;28;28977;-85
2022/12/20 08:32:07;;;;;;;;;0.00;0.00;;;;;-149.69;100.00;58464.25;4908427;28;28812;-86
2022/12/20 08:34:32;;;;;;;;;0.00;0.00;;;;;-149.69;100.00;58464.25;4906913;28;28648;-86
2022/12/20 08:36:58;;;;;;;;;0.00;0.00;;;;;-149.69;100.00;58464.25;4907992;29;28993;-87
2022/12/20 08:39:23;;;;;;;;;0.00;0.00;;;;;-149.69;100.00;58464.25;4907308;28;28623;-88
2022/12/20 08:41:49;;;;;;;;;0.00;0.00;;;;;-149.69;100.00;58464.25;4911721;28;28663;-88
2022/12/20 08:44:14;;;;;;;;;0.00;0.00;;;;;-149.69;100.00;58464.25;4914469;28;28459;-91
2022/12/20 08:46:39;;;;;;;;;0.00;0.00;;;;;-149.69;100.00;58464.25;4912275;29;28473;-86
2022/12/20 08:49:05;;;;;;;;;0.00;0.00;;;;;-149.69;100.00;58464.25;4899790;28;28542;-87
2022/12/20 08:51:30;;;;;;;;;0.00;0.00;;;;;-149.69;100.00;58464.25;4910049;29;28787;-87
2022/12/20 08:53:56;;;;;;;;;0.00;0.00;;;;;-149.69;100.00;58464.25;4907598;29;28567;-87
2022/12/20 08:56:22;;;;;;;;;0.00;0.00;;;;;-149.69;100.00;58464.25;4903068;28;28497;-87
2022/12/20 08:58:47;;;;;;;;;0.00;0.00;;;;;-149.69;100.00;58464.25;4902748;28;28498;-92
2022/12/20 09:01:18;;;;;;;;;0.00;0.00;;;;;-149.69;100.00;58464.25;4905693;28;29434;-88
2022/12/20 09:03:44;;;;;;;;;0.00;0.00;;;;;-149.69;100.00;58464.25;4907619;29;28524;-89
2022/12/20 09:06:13;;;;;;;;;0.00;0.00;;;;;-149.69;100.00;58464.25;4911767;28;28609;-87
2022/12/20 09:08:39;;;;;;;;;0.00;0.00;;;;;-149.69;100.00;58464.25;4902116;29;28693;-88
2022/12/20 09:11:13;;;;;;;;;0.00;0.00;;;;;-149.69;100.00;58464.25;4907711;28;29203;-88
2022/12/20 09:13:40;;;;;;;;;0.00;0.00;;;;;-149.69;100.00;58464.25;4908460;29;28456;-93
2022/12/20 09:16:07;;;;;;;;;0.00;0.00;;;;;-149.69;100.00;58464.25;4892094;29;29831;-87
2022/12/20 09:18:33;;;;;;;;;0.00;0.00;;;;;-149.69;100.00;58464.25;4904991;28;28552;-88
2022/12/20 09:21:00;;;;;;;;;0.00;0.00;;;;;-149.69;100.00;58464.25;4903807;28;29863;-88
2022/12/20 09:23:26;;;;;;;;;0.00;0.00;;;;;-149.69;100.00;58464.25;4905350;29;41369;-90
2022/12/20 09:25:51;;;;;;;;;0.00;0.00;;;;;-149.69;nan;112104.91;4900417;29;45341;-89
2022/12/20 09:28:16;;;;;;;;;0.00;0.00;;;;;-149.69;100.00;58464.25;4899034;29;45531;-89
2022/12/20 09:30:42;;;;;;;;;0.00;0.00;;;;;-149.69;100.00;58464.25;4906986;28;38205;-91
2022/12/20 09:33:07;;;;;;;;;0.00;0.00;;;;;-149.69;100.00;58464.25;4905342;29;42914;-89
2022/12/20 09:35:33;;;;;;;;;0.00;0.00;;;;;-149.69;100.00;58464.25;4925959;29;17386;-90
2022/12/20 09:37:58;;;;;;;;;0.00;0.00;;;;;-149.69;100.00;58464.25;4918633;29;8853;-90
2022/12/20 09:40:29;;;;;;;;;0.00;0.00;;;;;-149.69;100.00;58464.25;4921261;28;11573;-91
